Terminal Aerodrome Forecast
Issued by NWS

Home | Current Version | Previous Version | Text Only | Print | Product List | Glossary On
Versions: 1 2 3 4 5 6 7 8 9 10 11 12 13 14 15 16 17
000
FTUS44 KBMX 260600 AAA
TAFEET
TAF AMD
KEET 260634Z 2607/2706 28005KT P6SM SCT045 OVC060
     FM260730 28005KT P6SM BKN025 OVC040
     FM260830 30010G18KT P6SM OVC012
     FM262100 29007KT P6SM SKC=

USA.gov is the U.S. government's official web portal to all federal, state and local government web resources and services.